Terminal Aerodrome Forecast
Issued by NWS

Home | Current Version | Previous Version | Text Only | Print | Product List | Glossary On
Versions: 1 2 3 4 5 6 7 8 9 10 11 12 13 14 15 16 17 18 19 20 21 22 23
000
FTUS41 KALY 280200 AAB
TAFPSF
TAF AMD
KPSF 280234Z 2803/2824 25004KT 2SM -SN BR FEW015 SCT021 OVC030
     FM280500 32003KT P6SM VCSH OVC030
     FM281400 30010G15KT P6SM BKN040=

USA.gov is the U.S. government's official web portal to all federal, state and local government web resources and services.